createdAt,value
2019-03-11T00:00:30.178Z,2.93
2019-03-11T00:03:20.754Z,3.17
2019-03-11T00:05:56.404Z,3.17
2019-03-11T00:08:35.255Z,3.80
2019-03-11T00:11:04.377Z,3.20
2019-03-11T00:13:33.693Z,2.77
2019-03-11T00:16:09.395Z,2.33
2019-03-11T00:18:33.425Z,3.07
2019-03-11T00:21:01.751Z,2.30
2019-03-11T00:23:38.794Z,2.57
2019-03-11T00:26:05.797Z,2.50
2019-03-11T00:28:32.160Z,3.00
2019-03-11T00:30:58.426Z,2.83
2019-03-11T00:33:33.216Z,3.07
2019-03-11T00:35:59.994Z,2.23
2019-03-11T00:38:27.932Z,3.23
2019-03-11T00:40:54.388Z,2.73
2019-03-11T00:43:22.469Z,2.40
2019-03-11T00:45:55.871Z,2.60
2019-03-11T00:48:23.994Z,3.43
2019-03-11T00:50:58.060Z,2.60
2019-03-11T00:53:24.939Z,2.40
2019-03-11T00:55:54.077Z,2.77
2019-03-11T00:58:25.216Z,2.70
2019-03-11T01:00:55.421Z,2.77
2019-03-11T01:03:22.020Z,2.83
2019-03-11T01:05:50.695Z,2.90
2019-03-11T01:08:17.161Z,2.77
2019-03-11T01:10:46.004Z,2.90
2019-03-11T01:13:17.828Z,3.03
2019-03-11T01:15:50.922Z,3.10
2019-03-11T01:18:24.429Z,2.80
2019-03-11T01:20:50.768Z,3.10
2019-03-11T01:23:17.220Z,3.33
2019-03-11T01:25:46.618Z,3.13
2019-03-11T01:28:15.968Z,2.57
2019-03-11T01:30:54.078Z,3.20
2019-03-11T01:33:20.311Z,3.03
2019-03-11T01:35:46.724Z,3.27
2019-03-11T01:38:12.946Z,2.87
2019-03-11T01:40:39.159Z,3.00
2019-03-11T01:43:05.324Z,3.17
2019-03-11T01:45:34.118Z,2.70
2019-03-11T01:48:01.539Z,3.00
2019-03-11T01:50:27.803Z,3.37
2019-03-11T01:53:01.567Z,3.15
2019-03-11T01:55:32.565Z,3.30
2019-03-11T01:57:58.918Z,2.97
2019-03-11T02:00:25.147Z,3.07
2019-03-11T02:02:51.418Z,3.47
2019-03-11T02:05:23.511Z,3.07
2019-03-11T02:07:49.757Z,2.80
2019-03-11T02:10:17.271Z,2.83
2019-03-11T02:12:43.693Z,3.00
2019-03-11T02:15:15.207Z,2.97
2019-03-11T02:20:32.437Z,3.10
2019-03-11T02:23:08.514Z,2.83
2019-03-11T02:25:34.828Z,3.20
2019-03-11T02:28:01.375Z,3.20
2019-03-11T02:30:27.927Z,3.58
2019-03-11T02:32:54.092Z,3.73
2019-03-11T02:35:28.321Z,3.37
2019-03-11T02:37:55.250Z,3.37
2019-03-11T02:40:21.696Z,3.17
2019-03-11T02:42:47.884Z,3.40
2019-03-11T02:45:16.855Z,3.60
2019-03-11T02:47:43.079Z,3.00
2019-03-11T02:50:14.111Z,3.13
2019-03-11T02:52:44.470Z,3.72
2019-03-11T02:55:10.968Z,3.30
2019-03-11T02:57:37.407Z,3.83
2019-03-11T03:00:07.874Z,3.20
2019-03-11T03:02:54.847Z,3.63
2019-03-11T03:05:24.877Z,3.90
2019-03-11T03:08:02.383Z,3.60
2019-03-11T03:10:37.450Z,3.13
2019-03-11T03:13:04.034Z,3.60
2019-03-11T03:15:30.368Z,3.83
2019-03-11T03:17:58.630Z,2.97
2019-03-11T03:20:32.321Z,3.50
2019-03-11T03:22:58.521Z,3.43
2019-03-11T03:25:33.942Z,2.93
2019-03-11T03:27:53.216Z,3.73
2019-03-11T03:30:22.608Z,3.53
2019-03-11T03:33:06.351Z,3.40
2019-03-11T03:35:32.705Z,3.83
2019-03-11T03:37:59.317Z,3.93
2019-03-11T03:40:25.507Z,3.70
2019-03-11T03:42:52.050Z,3.83
2019-03-11T03:45:24.942Z,3.33
2019-03-11T03:47:51.399Z,4.00
2019-03-11T03:50:29.226Z,3.87
2019-03-11T03:52:58.087Z,3.97
2019-03-11T03:55:38.942Z,3.20
2019-03-11T03:58:05.361Z,3.73
2019-03-11T04:00:31.824Z,3.70
2019-03-11T04:02:58.392Z,3.30
2019-03-11T04:08:13.533Z,4.07
2019-03-11T04:10:45.051Z,3.70
2019-03-11T04:13:11.486Z,3.50
2019-03-11T04:15:37.727Z,3.70
2019-03-11T04:18:08.912Z,4.53
2019-03-11T04:20:35.735Z,3.80
2019-03-11T04:23:01.904Z,3.40
2019-03-11T04:25:29.485Z,3.27
2019-03-11T04:27:56.366Z,4.03
2019-03-11T04:30:23.779Z,3.83
2019-03-11T04:32:50.233Z,3.57
2019-03-11T04:35:16.565Z,3.50
2019-03-11T04:37:42.918Z,3.33
2019-03-11T04:40:13.556Z,3.57
2019-03-11T04:42:39.884Z,3.90
2019-03-11T04:45:11.013Z,3.70
2019-03-11T04:47:37.218Z,3.60
2019-03-11T04:50:07.049Z,3.10
2019-03-11T04:52:33.325Z,3.53
2019-03-11T04:54:59.600Z,3.93
2019-03-11T04:57:32.657Z,3.10
2019-03-11T04:59:58.907Z,3.27
2019-03-11T05:02:25.627Z,4.10
2019-03-11T05:04:51.808Z,3.03
2019-03-11T05:07:18.151Z,3.03
2019-03-11T05:09:44.332Z,3.43
2019-03-11T05:12:12.734Z,3.00
2019-03-11T05:14:38.946Z,3.07
2019-03-11T05:17:05.509Z,3.20
2019-03-11T05:19:32.248Z,2.60
2019-03-11T05:21:58.409Z,2.63
2019-03-11T05:24:24.618Z,3.30
2019-03-11T05:26:50.855Z,2.10
2019-03-11T05:29:17.177Z,2.30
2019-03-11T05:31:43.356Z,2.50
2019-03-11T05:34:09.621Z,1.90
2019-03-11T05:36:35.961Z,2.17
2019-03-11T05:39:04.027Z,2.33
2019-03-11T05:41:30.235Z,1.80
2019-03-11T05:43:56.489Z,1.60
2019-03-11T05:46:24.968Z,2.20
2019-03-11T05:49:00.830Z,1.87
2019-03-11T05:51:31.999Z,2.10
2019-03-11T05:53:58.115Z,2.10
2019-03-11T05:56:24.351Z,1.70
2019-03-11T05:58:50.612Z,1.70
2019-03-11T06:01:16.949Z,1.80
2019-03-11T06:03:43.219Z,1.77
2019-03-11T06:06:11.273Z,1.80
2019-03-11T06:08:37.605Z,1.80
2019-03-11T06:11:03.978Z,1.90
2019-03-11T06:13:36.009Z,1.63
2019-03-11T06:15:58.505Z,1.60
2019-03-11T06:18:44.302Z,2.33
2019-03-11T06:21:12.017Z,1.67
2019-03-11T06:23:38.144Z,1.63
2019-03-11T06:26:04.412Z,2.00
2019-03-11T06:28:30.654Z,2.20
2019-03-11T06:30:56.882Z,1.80
2019-03-11T06:33:23.198Z,1.70
2019-03-11T06:35:49.425Z,1.83
2019-03-11T06:38:15.553Z,1.90
2019-03-11T06:40:41.807Z,1.63
2019-03-11T06:43:08.041Z,1.87
2019-03-11T06:45:34.177Z,1.97
2019-03-11T06:48:00.420Z,1.60
2019-03-11T06:50:26.798Z,1.90
2019-03-11T06:52:53.072Z,1.93
2019-03-11T06:55:19.407Z,1.77
2019-03-11T06:57:45.978Z,1.80
2019-03-11T07:00:19.616Z,1.50
2019-03-11T07:02:46.017Z,1.40
2019-03-11T07:05:20.044Z,1.97
2019-03-11T07:07:40.539Z,1.43
2019-03-11T07:10:12.489Z,1.50
2019-03-11T07:12:38.932Z,1.47
2019-03-11T07:15:08.083Z,1.30
2019-03-11T07:17:35.503Z,1.63
2019-03-11T07:20:06.991Z,1.40
2019-03-11T07:22:35.876Z,1.60
2019-03-11T07:25:07.730Z,1.60
2019-03-11T07:27:31.483Z,1.50
2019-03-11T07:30:00.840Z,1.57
2019-03-11T07:32:27.059Z,1.73
2019-03-11T07:34:53.276Z,1.57
2019-03-11T07:37:19.575Z,1.70
2019-03-11T07:39:45.875Z,1.67
2019-03-11T07:42:12.041Z,1.80
2019-03-11T07:44:38.278Z,1.70
2019-03-11T07:47:04.519Z,2.00
2019-03-11T07:49:30.862Z,1.63
2019-03-11T07:51:56.999Z,1.73
2019-03-11T07:54:23.135Z,1.83
2019-03-11T07:56:49.365Z,1.90
2019-03-11T07:59:15.777Z,2.73
2019-03-11T08:01:41.999Z,1.80
2019-03-11T08:04:08.400Z,1.50
2019-03-11T08:06:40.748Z,1.50
2019-03-11T08:09:07.472Z,1.90
2019-03-11T08:11:33.674Z,1.63
2019-03-11T08:13:59.845Z,1.80
2019-03-11T08:16:26.314Z,1.73
2019-03-11T08:18:52.567Z,1.67
2019-03-11T08:21:19.131Z,1.70
2019-03-11T08:23:45.349Z,2.33
2019-03-11T08:26:11.577Z,1.60
2019-03-11T08:28:37.823Z,1.70
2019-03-11T08:31:04.250Z,1.80
2019-03-11T08:33:30.490Z,1.73
2019-03-11T08:35:56.759Z,1.50
2019-03-11T08:38:26.337Z,1.67
2019-03-11T08:40:52.534Z,1.77
2019-03-11T08:43:18.847Z,1.63
2019-03-11T08:45:45.262Z,1.60
2019-03-11T08:48:11.493Z,1.57
2019-03-11T08:50:37.839Z,1.60
2019-03-11T08:53:04.142Z,1.70
2019-03-11T08:55:30.294Z,1.43
2019-03-11T08:57:57.669Z,1.70
2019-03-11T09:00:24.074Z,1.43
2019-03-11T09:02:50.430Z,1.63
2019-03-11T09:05:17.058Z,1.90
2019-03-11T09:07:43.445Z,1.83
2019-03-11T09:10:12.410Z,1.50
2019-03-11T09:12:38.751Z,1.77
2019-03-11T09:15:08.407Z,1.57
2019-03-11T09:17:34.804Z,1.43
2019-03-11T09:20:01.072Z,1.70
2019-03-11T09:22:27.314Z,1.83
2019-03-11T09:24:53.670Z,1.70
2019-03-11T09:27:19.975Z,1.97
2019-03-11T09:29:48.074Z,1.47
2019-03-11T09:32:19.324Z,1.70
2019-03-11T09:34:45.124Z,1.90
2019-03-11T09:37:11.363Z,1.70
2019-03-11T09:39:37.977Z,1.70
2019-03-11T09:42:04.253Z,1.90
2019-03-11T09:44:34.204Z,1.77
2019-03-11T09:47:00.557Z,1.53
2019-03-11T09:49:26.868Z,1.70
2019-03-11T09:51:53.549Z,1.52
2019-03-11T09:54:23.612Z,1.87
2019-03-11T09:56:51.730Z,1.82
2019-03-11T09:59:22.687Z,1.57
2019-03-11T10:01:51.507Z,1.72
2019-03-11T10:04:17.765Z,1.50
2019-03-11T10:06:44.121Z,1.90
2019-03-11T10:09:13.171Z,1.45
2019-03-11T10:11:41.871Z,1.35
2019-03-11T10:14:08.372Z,1.90
2019-03-11T10:16:34.626Z,2.12
2019-03-11T10:19:00.864Z,1.40
2019-03-11T10:21:27.096Z,1.60
2019-03-11T10:23:53.245Z,1.55
2019-03-11T10:26:19.537Z,1.85
2019-03-11T10:28:56.325Z,1.92
2019-03-11T10:31:23.202Z,1.80
2019-03-11T10:33:49.445Z,1.60
2019-03-11T10:36:20.210Z,1.47
2019-03-11T10:38:46.527Z,2.08
2019-03-11T10:41:13.902Z,1.62
2019-03-11T10:43:42.248Z,1.47
2019-03-11T10:46:24.356Z,1.87
2019-03-11T10:49:11.045Z,1.50
2019-03-11T10:51:44.301Z,1.20
2019-03-11T10:54:12.590Z,1.70
2019-03-11T10:56:38.816Z,1.52
2019-03-11T10:59:05.405Z,1.42
2019-03-11T11:01:33.687Z,1.20
2019-03-11T11:03:59.998Z,1.40
2019-03-11T11:06:30.828Z,1.50
2019-03-11T11:09:02.093Z,1.41
2019-03-11T11:11:28.819Z,1.50
2019-03-11T11:13:55.031Z,1.50
2019-03-11T11:16:21.478Z,1.47
2019-03-11T11:18:53.038Z,1.55
2019-03-11T11:21:19.253Z,1.75
2019-03-11T11:23:45.600Z,1.77
2019-03-11T11:26:13.965Z,1.37
2019-03-11T11:28:40.327Z,1.42
2019-03-11T11:31:06.760Z,1.50
2019-03-11T11:33:37.906Z,1.50
2019-03-11T11:36:09.490Z,1.55
2019-03-11T11:38:40.442Z,1.70
2019-03-11T11:41:06.729Z,1.50
2019-03-11T11:43:32.955Z,1.63
2019-03-11T11:45:59.177Z,1.57
2019-03-11T11:48:25.353Z,2.40
2019-03-11T11:50:51.697Z,1.40
2019-03-11T11:53:25.363Z,1.47
2019-03-11T11:55:58.227Z,1.63
2019-03-11T11:58:47.449Z,1.55
2019-03-11T12:01:14.266Z,1.47
2019-03-11T12:03:42.610Z,1.50
2019-03-11T12:06:09.076Z,1.60
2019-03-11T12:08:35.324Z,1.50
2019-03-11T12:11:01.557Z,1.90
2019-03-11T12:13:28.026Z,2.13
2019-03-11T12:16:01.131Z,1.93
2019-03-11T12:21:20.800Z,1.83
2019-03-11T12:26:21.742Z,1.12
2019-03-11T12:28:48.060Z,1.65
2019-03-11T12:31:17.121Z,1.67
2019-03-11T12:33:54.725Z,1.50
2019-03-11T12:36:23.618Z,1.70
2019-03-11T12:38:54.508Z,1.72
2019-03-11T12:41:19.889Z,1.50
2019-03-11T12:43:46.002Z,1.40
2019-03-11T12:46:12.253Z,1.50
2019-03-11T12:48:40.436Z,1.40
2019-03-11T12:51:12.684Z,1.60
2019-03-11T12:53:38.656Z,1.50
2019-03-11T12:56:07.857Z,1.57
2019-03-11T12:58:41.498Z,1.30
2019-03-11T13:01:03.541Z,1.15
2019-03-11T13:03:30.005Z,1.70
2019-03-11T13:05:56.367Z,2.55
2019-03-11T13:08:25.867Z,1.80
2019-03-11T13:10:57.172Z,1.95
2019-03-11T13:13:28.417Z,1.52
2019-03-11T13:15:54.648Z,1.50
2019-03-11T13:18:40.722Z,2.30
2019-03-11T13:21:24.218Z,1.87
2019-03-11T13:23:55.817Z,1.43
2019-03-11T13:26:17.363Z,1.60
2019-03-11T13:28:43.478Z,1.80
2019-03-11T13:31:10.154Z,1.80
2019-03-11T13:33:36.926Z,1.70
2019-03-11T13:36:09.416Z,1.70
2019-03-11T13:38:38.551Z,1.70
2019-03-11T13:41:04.983Z,1.40
2019-03-11T13:43:32.322Z,1.30
2019-03-11T13:45:58.778Z,1.40
2019-03-11T13:48:25.108Z,1.50
2019-03-11T13:50:58.609Z,1.80
2019-03-11T13:53:22.134Z,1.57
2019-03-11T13:55:48.493Z,1.60
2019-03-11T13:58:17.754Z,1.93
2019-03-11T14:00:44.209Z,3.00
2019-03-11T14:03:10.482Z,2.00
2019-03-11T14:05:36.828Z,1.70
2019-03-11T14:08:03.129Z,2.00
2019-03-11T14:10:29.529Z,1.67
2019-03-11T14:12:55.859Z,1.87
2019-03-11T14:15:22.231Z,1.90
2019-03-11T14:17:48.784Z,2.07
2019-03-11T14:20:15.326Z,1.80
2019-03-11T14:22:43.122Z,2.00
2019-03-11T14:25:10.301Z,1.63
2019-03-11T14:27:36.520Z,1.77
2019-03-11T14:30:08.583Z,1.87
2019-03-11T14:32:34.807Z,1.80
2019-03-11T14:35:01.079Z,2.00
2019-03-11T14:37:27.310Z,1.93
2019-03-11T14:39:53.440Z,2.00
2019-03-11T14:42:19.683Z,2.20
2019-03-11T14:44:45.925Z,2.47
2019-03-11T14:47:12.219Z,2.20
2019-03-11T14:49:38.440Z,2.77
2019-03-11T14:52:04.897Z,2.23
2019-03-11T14:54:31.368Z,1.87
2019-03-11T14:56:57.746Z,2.10
2019-03-11T14:59:24.077Z,1.80
2019-03-11T15:01:50.410Z,2.20
2019-03-11T15:04:16.631Z,2.30
2019-03-11T15:06:50.402Z,2.47
2019-03-11T15:09:16.627Z,2.60
2019-03-11T15:11:48.584Z,2.13
2019-03-11T15:14:14.677Z,2.50
2019-03-11T15:19:37.465Z,2.00
2019-03-11T15:22:04.297Z,1.87
2019-03-11T15:24:30.635Z,2.07
2019-03-11T15:26:56.847Z,1.97
2019-03-11T15:29:23.128Z,1.90
2019-03-11T15:31:52.816Z,2.23
2019-03-11T15:34:19.532Z,1.80
2019-03-11T15:36:48.766Z,1.80
2019-03-11T15:39:15.124Z,1.90
2019-03-11T15:41:41.552Z,2.00
2019-03-11T15:44:07.710Z,2.13
2019-03-11T15:46:42.336Z,2.07
2019-03-11T15:49:08.576Z,2.30
2019-03-11T15:51:39.921Z,2.17
2019-03-11T15:54:10.537Z,2.10
2019-03-11T15:56:40.758Z,2.80
2019-03-11T15:59:07.121Z,2.00
2019-03-11T16:01:39.681Z,2.10
2019-03-11T16:04:06.050Z,2.23
2019-03-11T16:06:39.006Z,2.03
2019-03-11T16:09:10.396Z,2.43
2019-03-11T16:11:37.090Z,2.13
2019-03-11T16:14:03.465Z,2.00
2019-03-11T16:16:37.474Z,2.17
2019-03-11T16:19:03.884Z,1.93
2019-03-11T16:21:30.224Z,2.30
2019-03-11T16:23:59.119Z,1.93
2019-03-11T16:26:25.446Z,2.20
2019-03-11T16:28:51.792Z,2.20
2019-03-11T16:31:18.187Z,1.90
2019-03-11T16:33:44.610Z,1.93
2019-03-11T16:36:10.771Z,1.77
2019-03-11T16:38:37.221Z,1.77
2019-03-11T16:41:03.853Z,2.30
2019-03-11T16:43:30.112Z,1.97
2019-03-11T16:45:56.509Z,2.17
2019-03-11T16:48:24.194Z,2.27
2019-03-11T16:50:54.443Z,2.30
2019-03-11T16:53:21.717Z,3.10
2019-03-11T16:55:51.871Z,2.93
2019-03-11T16:58:18.319Z,2.67
2019-03-11T17:00:46.454Z,2.27
2019-03-11T17:03:13.000Z,2.27
2019-03-11T17:05:39.837Z,2.90
2019-03-11T17:08:06.404Z,2.03
2019-03-11T17:10:40.089Z,2.47
2019-03-11T17:13:08.884Z,1.83
2019-03-11T17:15:35.318Z,2.20
2019-03-11T17:18:07.695Z,2.20
2019-03-11T17:20:39.393Z,2.10
2019-03-11T17:23:10.930Z,2.30
2019-03-11T17:25:37.452Z,1.87
2019-03-11T17:28:08.406Z,2.40
2019-03-11T17:30:43.096Z,2.03
2019-03-11T17:33:24.452Z,1.93
2019-03-11T17:35:52.572Z,2.40
2019-03-11T17:38:19.796Z,2.16
2019-03-11T17:40:57.908Z,2.40
2019-03-11T17:43:34.173Z,2.43
2019-03-11T17:46:06.778Z,2.57
2019-03-11T17:48:38.513Z,2.37
2019-03-11T17:51:07.311Z,2.23
2019-03-11T17:53:33.735Z,2.13
2019-03-11T17:56:00.190Z,2.50
2019-03-11T17:58:28.832Z,2.70
2019-03-11T18:00:56.017Z,2.10
2019-03-11T18:03:22.486Z,1.90
2019-03-11T18:05:48.879Z,2.23
2019-03-11T18:08:15.207Z,2.03
2019-03-11T18:10:41.357Z,2.10
2019-03-11T18:13:07.759Z,2.20
2019-03-11T18:15:34.123Z,2.00
2019-03-11T18:18:00.294Z,2.47
2019-03-11T18:20:26.627Z,2.40
2019-03-11T18:22:52.967Z,2.50
2019-03-11T18:25:19.930Z,2.30
2019-03-11T18:27:46.497Z,2.17
2019-03-11T18:30:21.568Z,1.80
2019-03-11T18:32:48.373Z,2.20
2019-03-11T18:35:15.027Z,2.23
2019-03-11T18:37:41.200Z,2.27
2019-03-11T18:40:10.457Z,3.03
2019-03-11T18:42:36.816Z,2.37
2019-03-11T18:45:05.717Z,2.27
2019-03-11T18:47:32.595Z,2.50
2019-03-11T18:50:01.894Z,2.27
2019-03-11T18:52:30.063Z,2.53
2019-03-11T18:54:56.381Z,2.60
2019-03-11T18:57:23.298Z,2.43
2019-03-11T18:59:49.654Z,2.30
2019-03-11T19:02:16.263Z,2.50
2019-03-11T19:04:42.595Z,2.20
2019-03-11T19:07:08.916Z,2.80
2019-03-11T19:09:35.157Z,2.30
2019-03-11T19:12:01.688Z,2.60
2019-03-11T19:14:28.428Z,2.40
2019-03-11T19:16:58.325Z,2.33
2019-03-11T19:19:24.959Z,2.43
2019-03-11T19:21:51.388Z,2.43
2019-03-11T19:24:21.731Z,3.00
2019-03-11T19:26:49.193Z,2.67
2019-03-11T19:29:15.826Z,2.73
2019-03-11T19:31:45.151Z,2.50
2019-03-11T19:34:14.981Z,4.77
2019-03-11T19:36:47.172Z,7.83
2019-03-11T19:39:11.738Z,5.87
2019-03-11T19:41:38.434Z,10.37
2019-03-11T19:44:04.971Z,7.20
2019-03-11T19:46:31.334Z,7.10
2019-03-11T19:48:57.668Z,5.33
2019-03-11T19:51:24.136Z,5.63
2019-03-11T19:53:50.373Z,5.00
2019-03-11T19:56:16.687Z,3.30
2019-03-11T19:58:48.310Z,2.60
2019-03-11T20:01:15.105Z,2.53
2019-03-11T20:03:41.520Z,2.47
2019-03-11T20:06:11.530Z,2.40
2019-03-11T20:08:38.662Z,2.70
2019-03-11T20:11:07.736Z,2.73
2019-03-11T20:13:36.533Z,2.50
2019-03-11T20:16:05.047Z,2.50
2019-03-11T20:18:37.229Z,2.77
2019-03-11T20:21:03.509Z,2.80
2019-03-11T20:23:34.248Z,3.73
2019-03-11T20:25:59.991Z,3.20
2019-03-11T20:28:26.459Z,3.20
2019-03-11T20:30:53.081Z,2.40
2019-03-11T20:33:23.361Z,2.30
2019-03-11T20:35:49.763Z,3.53
2019-03-11T20:38:16.623Z,3.10
2019-03-11T20:40:43.234Z,2.50
2019-03-11T20:43:09.669Z,2.30
2019-03-11T20:45:36.036Z,2.30
2019-03-11T20:48:02.510Z,2.27
2019-03-11T20:50:37.632Z,2.07
2019-03-11T20:52:56.969Z,2.30
2019-03-11T20:55:23.280Z,1.90
2019-03-11T20:57:53.594Z,2.10
2019-03-11T21:00:25.535Z,2.40
2019-03-11T21:02:52.188Z,2.53
2019-03-11T21:05:30.678Z,2.90
2019-03-11T21:07:57.370Z,2.80
2019-03-11T21:10:23.655Z,2.60
2019-03-11T21:12:50.091Z,2.67
2019-03-11T21:15:16.689Z,3.07
2019-03-11T21:17:43.027Z,3.30
2019-03-11T21:20:13.894Z,2.60
2019-03-11T21:22:40.412Z,3.00
2019-03-11T21:25:12.862Z,2.30
2019-03-11T21:27:39.325Z,2.73
2019-03-11T21:30:09.416Z,2.87
2019-03-11T21:32:35.792Z,2.97
2019-03-11T21:35:03.057Z,2.70
2019-03-11T21:37:29.649Z,2.83
2019-03-11T21:39:55.888Z,2.73
2019-03-11T21:42:22.232Z,2.30
2019-03-11T21:44:48.432Z,2.10
2019-03-11T21:47:14.849Z,2.37
2019-03-11T21:49:41.041Z,2.03
2019-03-11T21:52:07.317Z,2.47
2019-03-11T21:54:33.702Z,2.40
2019-03-11T21:57:00.045Z,2.17
2019-03-11T21:59:26.305Z,2.63
2019-03-11T22:01:52.574Z,2.33
2019-03-11T22:04:18.788Z,2.50
2019-03-11T22:06:44.919Z,2.40
2019-03-11T22:09:11.235Z,2.33
2019-03-11T22:11:37.532Z,2.17
2019-03-11T22:14:03.970Z,1.80
2019-03-11T22:16:30.241Z,2.00
2019-03-11T22:18:56.633Z,1.97
2019-03-11T22:21:23.174Z,2.03
2019-03-11T22:23:49.504Z,2.00
2019-03-11T22:26:15.833Z,1.97
2019-03-11T22:28:42.195Z,1.90
2019-03-11T22:31:08.435Z,2.20
2019-03-11T22:33:35.033Z,2.47
2019-03-11T22:36:01.456Z,2.27
2019-03-11T22:38:27.685Z,2.60
2019-03-11T22:40:54.060Z,2.77
2019-03-11T22:43:20.425Z,2.80
2019-03-11T22:45:46.682Z,2.23
2019-03-11T22:48:12.898Z,2.83
2019-03-11T22:50:39.027Z,2.57
2019-03-11T22:53:05.361Z,2.53
2019-03-11T22:55:31.723Z,2.90
2019-03-11T22:57:58.163Z,2.87
2019-03-11T23:00:49.722Z,2.30
2019-03-11T23:03:15.976Z,2.83
2019-03-11T23:05:57.129Z,2.50
2019-03-11T23:08:10.460Z,2.13
2019-03-11T23:10:36.704Z,2.50
2019-03-11T23:13:03.172Z,2.87
2019-03-11T23:15:29.752Z,2.83
2019-03-11T23:17:55.995Z,2.77
2019-03-11T23:20:22.334Z,2.60
2019-03-11T23:22:48.577Z,2.47
2019-03-11T23:25:14.837Z,2.57
2019-03-11T23:27:41.070Z,2.83
2019-03-11T23:30:12.795Z,3.40
2019-03-11T23:32:39.050Z,2.70
2019-03-11T23:35:06.151Z,2.40
2019-03-11T23:37:32.337Z,3.17
2019-03-11T23:39:58.494Z,2.70
2019-03-11T23:42:24.758Z,3.37
2019-03-11T23:44:51.317Z,3.00
2019-03-11T23:47:17.530Z,3.33
2019-03-11T23:49:43.742Z,2.40
2019-03-11T23:52:09.964Z,2.50
2019-03-11T23:54:36.107Z,2.93
2019-03-11T23:57:02.570Z,2.90
2019-03-11T23:59:28.824Z,2.43
